createdAt,value
2018-02-03T00:00:03.710Z,1.90
2018-02-03T00:02:31.301Z,1.90
2018-02-03T00:04:58.867Z,2.13
2018-02-03T00:07:26.468Z,1.97
2018-02-03T00:09:54.025Z,2.23
2018-02-03T00:12:21.666Z,1.93
2018-02-03T00:14:49.225Z,2.10
2018-02-03T00:17:16.800Z,1.63
2018-02-03T00:19:45.128Z,2.00
2018-02-03T00:22:13.468Z,2.50
2018-02-03T00:24:41.030Z,2.47
2018-02-03T00:27:08.618Z,2.27
2018-02-03T00:29:36.953Z,2.13
2018-02-03T00:32:04.536Z,2.33
2018-02-03T00:34:32.099Z,2.80
2018-02-03T00:36:59.678Z,1.50
2018-02-03T00:39:27.241Z,2.63
2018-02-03T00:41:54.824Z,2.10
2018-02-03T00:44:22.385Z,2.57
2018-02-03T00:46:49.982Z,2.63
2018-02-03T00:49:17.550Z,2.10
2018-02-03T00:51:45.112Z,3.03
2018-02-03T00:54:12.714Z,2.87
2018-02-03T00:56:40.579Z,2.13
2018-02-03T00:59:08.163Z,3.23
2018-02-03T01:01:35.720Z,2.60
2018-02-03T01:04:03.494Z,2.30
2018-02-03T01:06:31.052Z,2.17
2018-02-03T01:08:58.633Z,2.30
2018-02-03T01:11:26.189Z,2.73
2018-02-03T01:13:53.774Z,2.60
2018-02-03T01:16:21.340Z,2.87
2018-02-03T01:18:48.913Z,3.83
2018-02-03T01:21:16.469Z,3.17
2018-02-03T01:23:44.045Z,3.17
2018-02-03T01:26:11.609Z,3.30
2018-02-03T01:28:39.185Z,3.27
2018-02-03T01:31:08.248Z,3.30
2018-02-03T01:33:35.832Z,3.43
2018-02-03T01:36:03.397Z,3.50
2018-02-03T01:38:30.985Z,3.50
2018-02-03T01:40:59.307Z,3.40
2018-02-03T01:43:26.886Z,3.10
2018-02-03T01:45:54.486Z,2.93
2018-02-03T01:48:22.069Z,3.40
2018-02-03T01:50:49.634Z,3.23
2018-02-03T01:53:17.230Z,2.77
2018-02-03T01:55:44.787Z,3.00
2018-02-03T01:58:12.384Z,3.50
2018-02-03T02:00:39.953Z,2.87
2018-02-03T02:03:07.514Z,2.93
2018-02-03T02:05:35.090Z,2.50
2018-02-03T02:08:02.656Z,2.70
2018-02-03T02:10:30.241Z,2.80
2018-02-03T02:12:57.796Z,2.80
2018-02-03T02:15:25.372Z,3.30
2018-02-03T02:17:53.862Z,2.70
2018-02-03T02:20:21.444Z,3.00
2018-02-03T02:22:49.008Z,2.73
2018-02-03T02:25:16.687Z,2.73
2018-02-03T02:27:44.250Z,2.70
2018-02-03T02:30:11.829Z,2.33
2018-02-03T02:32:39.397Z,2.50
2018-02-03T02:35:06.980Z,2.30
2018-02-03T02:37:34.557Z,2.63
2018-02-03T02:40:02.140Z,2.07
2018-02-03T02:42:29.693Z,3.03
2018-02-03T02:44:57.269Z,2.87
2018-02-03T02:47:24.836Z,3.37
2018-02-03T02:49:52.417Z,3.27
2018-02-03T02:52:19.976Z,3.60
2018-02-03T02:54:47.553Z,4.40
2018-02-03T02:57:15.118Z,4.27
2018-02-03T02:59:43.465Z,5.33
2018-02-03T03:02:11.026Z,5.53
2018-02-03T03:04:38.617Z,6.60
2018-02-03T03:07:06.175Z,5.57
2018-02-03T03:09:34.544Z,5.57
2018-02-03T03:12:02.865Z,6.20
2018-02-03T03:14:30.461Z,6.33
2018-02-03T03:16:58.024Z,6.27
2018-02-03T03:19:25.588Z,6.97
2018-02-03T03:21:53.179Z,7.73
2018-02-03T03:24:20.741Z,7.40
2018-02-03T03:26:48.324Z,8.37
2018-02-03T03:29:15.889Z,7.70
2018-02-03T03:31:43.472Z,8.00
2018-02-03T03:34:11.051Z,7.73
2018-02-03T03:36:38.649Z,8.90
2018-02-03T03:39:06.225Z,8.30
2018-02-03T03:41:33.809Z,7.97
2018-02-03T03:44:01.376Z,7.93
2018-02-03T03:46:28.965Z,9.07
2018-02-03T03:48:56.539Z,8.27
2018-02-03T03:51:24.134Z,8.10
2018-02-03T03:53:51.701Z,9.13
2018-02-03T03:56:19.288Z,8.40
2018-02-03T03:58:47.625Z,7.67
2018-02-03T04:01:15.220Z,7.80
2018-02-03T04:03:42.800Z,8.30
2018-02-03T04:06:10.379Z,7.70
2018-02-03T04:08:37.946Z,7.97
2018-02-03T04:11:05.529Z,8.63
2018-02-03T04:13:33.088Z,8.00
2018-02-03T04:16:00.677Z,7.10
2018-02-03T04:18:28.232Z,7.57
2018-02-03T04:20:56.595Z,8.90
2018-02-03T04:23:24.165Z,9.40
2018-02-03T04:25:51.761Z,7.50
2018-02-03T04:28:19.328Z,8.17
2018-02-03T04:30:46.885Z,8.47
2018-02-03T04:33:14.476Z,7.93
2018-02-03T04:35:42.041Z,8.20
2018-02-03T04:38:09.662Z,7.73
2018-02-03T04:40:37.220Z,8.50
2018-02-03T04:43:04.803Z,8.10
2018-02-03T04:45:33.133Z,9.20
2018-02-03T04:48:00.720Z,8.13
2018-02-03T04:50:28.281Z,7.63
2018-02-03T04:52:55.865Z,8.10
2018-02-03T04:55:24.940Z,8.00
2018-02-03T04:57:52.522Z,8.30
2018-02-03T05:00:20.134Z,8.57
2018-02-03T05:02:47.764Z,8.60
2018-02-03T05:05:16.098Z,10.20
2018-02-03T05:07:43.696Z,12.03
2018-02-03T05:10:11.264Z,10.10
2018-02-03T05:12:39.617Z,9.80
2018-02-03T05:15:07.179Z,9.73
2018-02-03T05:17:34.770Z,9.80
2018-02-03T05:20:03.096Z,10.50
2018-02-03T05:22:30.676Z,9.97
2018-02-03T05:24:58.248Z,8.73
2018-02-03T05:27:25.839Z,10.03
2018-02-03T05:29:53.398Z,10.70
2018-02-03T05:32:20.988Z,9.63
2018-02-03T05:34:48.548Z,9.97
2018-02-03T05:37:17.192Z,8.23
2018-02-03T05:39:45.604Z,8.60
2018-02-03T05:42:13.201Z,9.17
2018-02-03T05:47:44.469Z,9.67
2018-02-03T05:50:12.029Z,8.70
2018-02-03T05:52:40.381Z,8.17
2018-02-03T05:55:07.951Z,8.43
2018-02-03T05:57:35.537Z,8.00
2018-02-03T06:00:03.317Z,9.23
2018-02-03T06:02:30.904Z,8.23
2018-02-03T06:04:58.469Z,9.00
2018-02-03T06:07:26.833Z,7.47
2018-02-03T06:09:54.420Z,7.47
2018-02-03T06:12:21.989Z,7.00
2018-02-03T06:14:49.602Z,7.60
2018-02-03T06:17:17.165Z,8.30
2018-02-03T06:19:44.753Z,8.13
2018-02-03T06:22:12.312Z,8.57
2018-02-03T06:24:39.899Z,6.80
2018-02-03T06:27:07.465Z,7.20
2018-02-03T06:29:35.818Z,5.90
2018-02-03T06:32:03.384Z,7.90
2018-02-03T06:34:30.979Z,6.70
2018-02-03T06:36:58.541Z,6.37
2018-02-03T06:39:26.128Z,6.23
2018-02-03T06:41:53.685Z,5.70
2018-02-03T06:44:21.278Z,6.40
2018-02-03T06:46:48.837Z,5.40
2018-02-03T06:49:16.427Z,5.60
2018-02-03T06:51:43.995Z,7.13
2018-02-03T06:54:11.580Z,6.47
2018-02-03T06:56:39.144Z,5.60
2018-02-03T06:59:06.751Z,6.20
2018-02-03T07:01:35.077Z,8.33
2018-02-03T07:04:02.665Z,6.63
2018-02-03T07:06:30.233Z,8.20
2018-02-03T07:08:58.585Z,9.27
2018-02-03T07:11:26.144Z,7.83
2018-02-03T07:13:53.732Z,8.27
2018-02-03T07:16:21.288Z,8.40
2018-02-03T07:18:49.641Z,7.70
2018-02-03T07:21:17.340Z,8.93
2018-02-03T07:23:44.925Z,8.90
2018-02-03T07:26:12.490Z,9.73
2018-02-03T07:28:40.089Z,10.73
2018-02-03T07:31:07.666Z,10.83
2018-02-03T07:33:36.010Z,8.50
2018-02-03T07:36:03.602Z,8.43
2018-02-03T07:38:31.161Z,7.70
2018-02-03T07:40:59.521Z,10.10
2018-02-03T07:43:27.093Z,8.80
2018-02-03T07:45:54.697Z,9.10
2018-02-03T07:48:22.271Z,12.80
2018-02-03T07:50:49.865Z,11.37
2018-02-03T07:53:17.429Z,11.20
2018-02-03T07:55:45.042Z,7.63
2018-02-03T07:58:12.601Z,9.13
2018-02-03T08:00:40.193Z,7.80
2018-02-03T08:03:07.789Z,7.80
2018-02-03T08:05:35.381Z,9.00
2018-02-03T08:08:03.013Z,7.93
2018-02-03T08:10:30.629Z,8.43
2018-02-03T08:12:58.188Z,7.13
2018-02-03T08:15:25.777Z,8.90
2018-02-03T08:17:54.105Z,6.33
2018-02-03T08:20:21.688Z,8.13
2018-02-03T08:22:49.248Z,6.10
2018-02-03T08:25:16.834Z,7.33
2018-02-03T08:27:45.167Z,21.77
2018-02-03T08:30:12.772Z,7.47
2018-02-03T08:32:40.329Z,8.00
2018-02-03T08:35:07.888Z,11.37
2018-02-03T08:37:36.244Z,9.60
2018-02-03T08:40:04.589Z,7.10
2018-02-03T08:42:32.177Z,5.97
2018-02-03T08:44:59.762Z,6.37
2018-02-03T08:47:28.122Z,7.37
2018-02-03T08:49:56.013Z,7.07
2018-02-03T08:52:23.601Z,5.83
2018-02-03T08:54:51.169Z,6.03
2018-02-03T08:57:18.760Z,6.20
2018-02-03T08:59:46.322Z,6.43
2018-02-03T09:02:13.937Z,8.20
2018-02-03T09:04:41.494Z,5.90
2018-02-03T09:07:09.077Z,5.97
2018-02-03T09:09:36.647Z,6.87
2018-02-03T09:12:06.145Z,5.80
2018-02-03T09:14:33.714Z,4.87
2018-02-03T09:17:01.302Z,5.80
2018-02-03T09:19:29.628Z,5.90
2018-02-03T09:21:57.208Z,5.73
2018-02-03T09:24:24.783Z,6.10
2018-02-03T09:26:52.369Z,4.57
2018-02-03T09:29:19.929Z,6.50
2018-02-03T09:31:47.556Z,4.00
2018-02-03T09:34:15.084Z,5.30
2018-02-03T09:36:42.673Z,5.40
2018-02-03T09:39:10.239Z,6.53
2018-02-03T09:41:37.830Z,6.30
2018-02-03T09:44:05.388Z,7.27
2018-02-03T09:46:32.951Z,4.33
2018-02-03T09:49:00.537Z,5.10
2018-02-03T09:51:28.105Z,4.10
2018-02-03T09:53:55.689Z,4.27
2018-02-03T09:56:24.053Z,4.47
2018-02-03T09:58:51.623Z,4.30
2018-02-03T10:01:19.184Z,3.80
2018-02-03T10:03:46.775Z,4.60
2018-02-03T10:06:14.328Z,3.97
2018-02-03T10:08:41.905Z,3.70
2018-02-03T10:11:09.465Z,4.70
2018-02-03T10:13:37.053Z,4.03
2018-02-03T10:16:04.626Z,4.43
2018-02-03T10:18:32.210Z,3.80
2018-02-03T10:21:00.546Z,3.90
2018-02-03T10:23:28.128Z,4.57
2018-02-03T10:25:55.684Z,4.73
2018-02-03T10:28:23.271Z,5.07
2018-02-03T10:30:50.830Z,4.53
2018-02-03T10:33:18.446Z,4.10
2018-02-03T10:35:45.998Z,4.73
2018-02-03T10:38:13.584Z,4.70
2018-02-03T10:40:41.918Z,4.17
2018-02-03T10:43:09.507Z,4.30
2018-02-03T10:45:37.069Z,4.20
2018-02-03T10:48:04.652Z,4.07
2018-02-03T10:50:32.973Z,3.67
2018-02-03T10:53:00.552Z,4.97
2018-02-03T10:55:28.110Z,4.47
2018-02-03T10:57:55.669Z,4.03
2018-02-03T11:00:23.249Z,4.57
2018-02-03T11:02:50.808Z,3.53
2018-02-03T11:05:18.384Z,4.10
2018-02-03T11:07:46.714Z,4.83
2018-02-03T11:10:14.296Z,4.57
2018-02-03T11:12:41.856Z,5.23
2018-02-03T11:15:09.436Z,4.37
2018-02-03T11:17:37.760Z,4.97
2018-02-03T11:20:05.370Z,6.10
2018-02-03T11:22:32.933Z,6.90
2018-02-03T11:25:00.516Z,6.63
2018-02-03T11:27:28.088Z,6.70
2018-02-03T11:29:55.678Z,7.00
2018-02-03T11:32:24.098Z,7.70
2018-02-03T11:34:51.677Z,6.87
2018-02-03T11:37:19.232Z,7.00
2018-02-03T11:39:46.821Z,7.60
2018-02-03T11:42:14.389Z,8.87
2018-02-03T11:44:41.972Z,8.50
2018-02-03T11:47:10.347Z,7.60
2018-02-03T11:49:37.923Z,8.13
2018-02-03T11:52:05.486Z,7.70
2018-02-03T11:54:33.071Z,8.17
2018-02-03T11:57:00.764Z,8.50
2018-02-03T11:59:28.358Z,8.80
2018-02-03T12:01:55.921Z,9.07
2018-02-03T12:04:23.512Z,8.10
2018-02-03T12:06:51.079Z,8.27
2018-02-03T12:09:18.656Z,9.07
2018-02-03T12:11:46.213Z,7.50
2018-02-03T12:14:13.801Z,9.13
2018-02-03T12:16:41.378Z,8.07
2018-02-03T12:19:08.966Z,8.23
2018-02-03T12:21:36.533Z,8.20
2018-02-03T12:24:04.097Z,8.00
2018-02-03T12:26:31.680Z,7.53
2018-02-03T12:28:59.249Z,8.20
2018-02-03T12:31:27.601Z,7.47
2018-02-03T12:33:55.174Z,7.80
2018-02-03T12:36:22.770Z,8.00
2018-02-03T12:38:50.345Z,6.60
2018-02-03T12:41:17.925Z,6.03
2018-02-03T12:43:45.481Z,6.57
2018-02-03T12:46:13.077Z,6.60
2018-02-03T12:48:40.636Z,5.80
2018-02-03T12:51:08.227Z,6.87
2018-02-03T12:53:35.797Z,5.93
2018-02-03T12:56:03.388Z,7.20
2018-02-03T12:58:30.950Z,6.40
2018-02-03T13:00:58.537Z,6.97
2018-02-03T13:03:26.325Z,7.70
2018-02-03T13:05:53.907Z,7.00
2018-02-03T13:08:21.642Z,9.87
2018-02-03T13:10:49.224Z,6.20
2018-02-03T13:13:16.796Z,6.67
2018-02-03T13:15:44.380Z,6.70
2018-02-03T13:18:11.950Z,7.57
2018-02-03T13:20:39.527Z,7.70
2018-02-03T13:23:07.852Z,7.90
2018-02-03T13:25:35.433Z,7.63
2018-02-03T13:28:02.994Z,7.93
2018-02-03T13:30:30.585Z,7.23
2018-02-03T13:32:58.912Z,8.30
2018-02-03T13:35:26.509Z,8.07
2018-02-03T13:37:54.085Z,8.00
2018-02-03T13:40:21.648Z,8.13
2018-02-03T13:42:49.234Z,8.30
2018-02-03T13:45:16.797Z,8.07
2018-02-03T13:47:44.389Z,8.43
2018-02-03T13:50:11.953Z,7.83
2018-02-03T13:52:39.546Z,7.97
2018-02-03T13:55:07.104Z,9.27
2018-02-03T13:57:34.695Z,8.40
2018-02-03T14:00:02.265Z,8.00
2018-02-03T14:02:29.849Z,8.80
2018-02-03T14:04:57.420Z,8.30
2018-02-03T14:07:25.769Z,8.90
2018-02-03T14:09:53.334Z,8.90
2018-02-03T14:12:20.924Z,8.03
2018-02-03T14:14:48.488Z,8.63
2018-02-03T14:17:16.082Z,9.83
2018-02-03T14:19:43.654Z,9.60
2018-02-03T14:22:11.245Z,9.23
2018-02-03T14:24:45.254Z,9.40
2018-02-03T14:27:12.831Z,9.87
2018-02-03T14:29:40.408Z,11.50
2018-02-03T14:32:07.992Z,10.00
2018-02-03T14:34:35.557Z,9.30
2018-02-03T14:37:03.137Z,10.60
2018-02-03T14:39:30.706Z,10.23
2018-02-03T14:41:59.068Z,10.00
2018-02-03T14:44:26.639Z,10.77
2018-02-03T14:46:54.455Z,8.90
2018-02-03T14:49:22.026Z,9.13
2018-02-03T14:51:49.618Z,8.50
2018-02-03T14:54:17.185Z,7.93
2018-02-03T14:56:44.744Z,8.50
2018-02-03T14:59:13.099Z,8.53
2018-02-03T15:01:40.676Z,8.17
2018-02-03T15:04:09.074Z,8.77
2018-02-03T15:06:36.628Z,10.50
2018-02-03T15:09:04.222Z,7.97
2018-02-03T15:11:31.780Z,8.17
2018-02-03T15:13:59.369Z,7.73
2018-02-03T15:16:26.928Z,7.10
2018-02-03T15:18:54.514Z,6.50
2018-02-03T15:21:22.081Z,7.47
2018-02-03T15:23:50.437Z,8.20
2018-02-03T15:26:18.007Z,7.70
2018-02-03T15:28:45.595Z,8.50
2018-02-03T15:31:13.163Z,10.03
2018-02-03T15:33:40.749Z,8.13
2018-02-03T15:36:09.074Z,8.47
2018-02-03T15:38:36.657Z,7.77
2018-02-03T15:41:04.217Z,9.37
2018-02-03T15:43:31.806Z,8.10
2018-02-03T15:45:59.383Z,10.00
2018-02-03T15:48:26.977Z,7.33
2018-02-03T15:50:54.545Z,6.93
2018-02-03T15:53:22.124Z,7.80
2018-02-03T15:55:49.689Z,7.50
2018-02-03T15:58:17.276Z,6.40
2018-02-03T16:00:45.626Z,6.80
2018-02-03T16:03:13.174Z,7.10
2018-02-03T16:05:40.765Z,7.70
2018-02-03T16:08:08.329Z,8.90
2018-02-03T16:10:35.947Z,11.90
2018-02-03T16:13:03.501Z,9.77
2018-02-03T16:15:31.084Z,10.20
2018-02-03T16:17:58.655Z,8.90
2018-02-03T16:20:26.236Z,7.80
2018-02-03T16:22:53.797Z,8.73
2018-02-03T16:25:21.380Z,9.70
2018-02-03T16:27:48.940Z,8.90
2018-02-03T16:30:16.534Z,8.17
2018-02-03T16:32:44.149Z,11.60
2018-02-03T16:35:12.497Z,6.90
2018-02-03T16:37:40.056Z,6.00
2018-02-03T16:40:07.631Z,6.63
2018-02-03T16:42:35.195Z,5.50
2018-02-03T16:45:03.536Z,5.43
2018-02-03T16:47:31.095Z,6.17
2018-02-03T16:49:58.672Z,5.90
2018-02-03T16:52:26.239Z,5.93
2018-02-03T16:54:54.591Z,5.97
2018-02-03T16:57:22.153Z,6.77
2018-02-03T16:59:49.747Z,6.90
2018-02-03T17:02:17.313Z,5.83
2018-02-03T17:04:44.905Z,6.90
2018-02-03T17:07:12.470Z,6.33
2018-02-03T17:09:40.062Z,6.23
2018-02-03T17:12:07.615Z,5.70
2018-02-03T17:14:35.179Z,6.53
2018-02-03T17:17:02.756Z,5.90
2018-02-03T17:19:30.321Z,6.60
2018-02-03T17:21:57.900Z,6.20
2018-02-03T17:24:25.456Z,5.60
2018-02-03T17:26:53.038Z,6.27
2018-02-03T17:29:20.603Z,7.33
2018-02-03T17:31:48.185Z,5.93
2018-02-03T17:34:15.753Z,5.50
2018-02-03T17:36:48.964Z,7.97
2018-02-03T17:39:18.320Z,7.03
2018-02-03T17:41:45.908Z,6.37
2018-02-03T17:44:13.471Z,9.00
2018-02-03T17:46:46.796Z,8.93
2018-02-03T17:49:14.352Z,6.30
2018-02-03T17:51:41.943Z,10.40
2018-02-03T17:54:09.508Z,13.53
2018-02-03T17:56:42.784Z,7.63
2018-02-03T17:59:10.344Z,6.80
2018-02-03T18:01:37.928Z,32.87
2018-02-03T18:04:05.484Z,16.90
2018-02-03T18:06:38.800Z,6.90
2018-02-03T18:09:07.128Z,5.80
2018-02-03T18:11:34.727Z,5.93
2018-02-03T18:14:02.301Z,14.80
2018-02-03T18:16:29.885Z,7.40
2018-02-03T18:18:57.453Z,7.97
2018-02-03T18:21:25.046Z,7.63
2018-02-03T18:23:52.613Z,7.50
2018-02-03T18:26:20.200Z,8.03
2018-02-03T18:28:47.756Z,5.87
2018-02-03T18:31:16.151Z,5.30
2018-02-03T18:33:44.457Z,5.23
2018-02-03T18:36:12.040Z,9.57
2018-02-03T18:38:39.605Z,6.43
2018-02-03T18:41:07.190Z,7.73
2018-02-03T18:43:35.520Z,8.43
2018-02-03T18:46:03.109Z,10.80
2018-02-03T18:48:30.669Z,3.07
2018-02-03T18:50:58.260Z,5.40
2018-02-03T18:53:25.824Z,3.43
2018-02-03T18:55:53.388Z,5.77
2018-02-03T18:58:20.963Z,4.90
2018-02-03T19:00:48.516Z,4.53
2018-02-03T19:03:16.097Z,4.80
2018-02-03T19:05:43.677Z,8.97
2018-02-03T19:08:11.265Z,8.60
2018-02-03T19:10:39.596Z,38.40
2018-02-03T19:13:07.188Z,31.93
2018-02-03T19:15:35.555Z,10.70
2018-02-03T19:18:03.910Z,8.43
2018-02-03T19:20:31.481Z,15.13
2018-02-03T19:22:59.065Z,5.83
2018-02-03T19:25:26.627Z,7.90
2018-02-03T19:27:55.022Z,17.93
2018-02-03T19:30:22.647Z,11.07
2018-02-03T19:32:50.244Z,12.97
2018-02-03T19:35:17.854Z,7.30
2018-02-03T19:37:45.444Z,5.50
2018-02-03T19:40:13.788Z,10.73
2018-02-03T19:42:41.491Z,4.40
2018-02-03T19:45:09.060Z,4.30
2018-02-03T19:47:36.647Z,8.83
2018-02-03T19:50:04.256Z,7.03
2018-02-03T19:52:32.657Z,3.17
2018-02-03T19:55:00.212Z,3.60
2018-02-03T19:57:27.909Z,7.00
2018-02-03T19:59:56.224Z,22.27
2018-02-03T20:02:24.548Z,5.43
2018-02-03T20:04:52.179Z,3.97
2018-02-03T20:07:19.746Z,4.83
2018-02-03T20:09:47.327Z,3.60
2018-02-03T20:12:14.940Z,3.50
2018-02-03T20:14:42.575Z,18.50
2018-02-03T20:17:10.137Z,25.20
2018-02-03T20:19:37.724Z,10.57
2018-02-03T20:22:06.102Z,6.33
2018-02-03T20:24:34.509Z,6.50
2018-02-03T20:27:02.124Z,4.30
2018-02-03T20:29:29.759Z,4.13
2018-02-03T20:31:57.317Z,4.90
2018-02-03T20:34:24.964Z,17.97
2018-02-03T20:36:52.533Z,9.20
2018-02-03T20:39:20.159Z,4.83
2018-02-03T20:41:47.768Z,3.40
2018-02-03T20:44:15.408Z,3.70
2018-02-03T20:46:42.972Z,3.13
2018-02-03T20:49:10.594Z,4.20
2018-02-03T20:51:38.187Z,3.37
2018-02-03T20:54:05.768Z,5.00
2018-02-03T20:56:33.333Z,3.97
2018-02-03T20:59:00.922Z,2.77
2018-02-03T21:01:29.249Z,4.80
2018-02-03T21:03:56.888Z,4.87
2018-02-03T21:06:24.512Z,4.53
2018-02-03T21:08:52.100Z,5.00
2018-02-03T21:11:19.703Z,4.97
2018-02-03T21:13:47.280Z,3.70
2018-02-03T21:16:15.662Z,3.23
2018-02-03T21:18:43.995Z,3.00
2018-02-03T21:21:11.583Z,4.13
2018-02-03T21:23:39.178Z,3.37
2018-02-03T21:26:07.000Z,3.23
2018-02-03T21:28:34.616Z,3.13
2018-02-03T21:31:02.213Z,3.87
2018-02-03T21:33:29.777Z,2.80
2018-02-03T21:35:57.411Z,3.50
2018-02-03T21:38:24.961Z,3.50
2018-02-03T21:40:52.554Z,5.27
2018-02-03T21:43:20.168Z,5.87
2018-02-03T21:45:47.804Z,5.43
2018-02-03T21:48:15.360Z,4.97
2018-02-03T21:50:43.708Z,6.80
2018-02-03T21:53:11.273Z,9.03
2018-02-03T21:55:38.865Z,10.90
2018-02-03T21:58:06.437Z,9.60
2018-02-03T22:00:34.034Z,6.90
2018-02-03T22:03:01.647Z,7.83
2018-02-03T22:05:29.228Z,7.67
2018-02-03T22:07:56.793Z,7.57
2018-02-03T22:10:24.431Z,7.70
2018-02-03T22:12:52.049Z,7.57
2018-02-03T22:15:19.693Z,9.10
2018-02-03T22:17:47.253Z,8.47
2018-02-03T22:20:14.845Z,8.50
2018-02-03T22:22:43.181Z,9.57
2018-02-03T22:25:10.822Z,9.70
2018-02-03T22:27:38.389Z,10.30
2018-02-03T22:30:06.020Z,9.20
2018-02-03T22:32:33.576Z,9.67
2018-02-03T22:35:01.169Z,9.70
2018-02-03T22:37:28.761Z,10.67
2018-02-03T22:39:56.331Z,9.60
2018-02-03T22:42:23.973Z,10.33
2018-02-03T22:44:51.532Z,9.97
2018-02-03T22:47:19.117Z,10.33
2018-02-03T22:49:46.681Z,15.50
2018-02-03T22:52:15.037Z,11.83
2018-02-03T22:54:42.601Z,12.80
2018-02-03T22:57:10.239Z,20.67
2018-02-03T22:59:37.797Z,26.80
2018-02-03T23:02:05.393Z,20.80
2018-02-03T23:04:32.964Z,12.00
2018-02-03T23:07:01.322Z,13.17
2018-02-03T23:09:29.656Z,31.13
2018-02-03T23:11:57.251Z,17.43
2018-02-03T23:14:24.816Z,27.90
2018-02-03T23:16:52.423Z,23.03
2018-02-03T23:19:19.988Z,26.43
2018-02-03T23:21:47.573Z,21.80
2018-02-03T23:24:15.181Z,15.40
2018-02-03T23:26:42.757Z,15.37
2018-02-03T23:29:10.320Z,16.70
2018-02-03T23:31:37.909Z,13.63
2018-02-03T23:34:05.477Z,10.20
2018-02-03T23:36:33.936Z,10.10
2018-02-03T23:39:01.505Z,10.50
2018-02-03T23:41:29.068Z,10.60
2018-02-03T23:43:56.654Z,9.60
2018-02-03T23:46:24.991Z,10.17
2018-02-03T23:48:52.576Z,11.37
2018-02-03T23:51:20.136Z,8.73
2018-02-03T23:53:47.712Z,9.03
2018-02-03T23:56:16.045Z,9.90
2018-02-03T23:58:43.645Z,10.90
